Time;durP1;ratioP1;P1;durP2;ratioP2;P2;SDS_P1;SDS_P2;PMS_P1;PMS_P2;Temp;Humidity;BMP_temperature;BMP_pressure;BME280_temperature;BME280_humidity;BME280_pressure;Samples;Min_cycle;Max_cycle;Signal;HPM_P1;HPM_P2
2023/06/07 00:01:08;;;;;;;9.75;3.75;;;460.80;2380.80;;;;;;4907376;29;20439;-74
2023/06/07 00:03:36;;;;;;;9.77;3.80;;;460.90;2380.80;;;;;;4909205;29;20035;-74
2023/06/07 00:06:02;;;;;;;9.23;4.60;;;460.90;2380.80;;;;;;4900939;29;20024;-74
2023/06/07 00:08:31;;;;;;;6.68;3.97;;;460.90;2380.80;;;;;;4906166;29;20119;-73
2023/06/07 00:10:57;;;;;;;8.52;3.83;;;460.90;2380.80;;;;;;4911623;29;20546;-75
2023/06/07 00:13:23;;;;;;;5.28;3.85;;;460.90;2380.80;;;;;;4905917;29;20097;-73
2023/06/07 00:15:49;;;;;;;15.98;4.35;;;460.80;2380.80;;;;;;4910098;29;20049;-73
2023/06/07 00:18:16;;;;;;;6.45;3.85;;;460.80;2380.80;;;;;;4922484;29;20096;-74
2023/06/07 00:20:45;;;;;;;12.18;4.45;;;460.80;2380.80;;;;;;4905359;29;20077;-74
2023/06/07 00:23:18;;;;;;;10.23;4.00;;;460.80;2380.80;;;;;;4899732;29;20482;-78
2023/06/07 00:25:45;;;;;;;10.48;3.78;;;;;;;;;;4908508;29;20161;-77
2023/06/07 00:28:11;;;;;;;10.10;4.50;;;;;;;;;;4906706;29;20036;-75
2023/06/07 00:30:37;;;;;;;15.30;4.63;;;;;;;;;;4914523;29;20047;-74
2023/06/07 00:33:03;;;;;;;8.63;4.65;;;436.10;2355.20;;;;;;4905848;29;20135;-73
2023/06/07 00:35:28;;;;;;;7.30;4.82;;;460.80;2380.80;;;;;;4900411;29;20112;-74
2023/06/07 00:37:54;;;;;;;6.78;4.00;;;460.80;2380.80;;;;;;4906360;29;20028;-73
2023/06/07 00:40:20;;;;;;;8.82;4.50;;;460.80;2380.80;;;;;;4929024;29;20069;-73
2023/06/07 00:42:46;;;;;;;10.52;5.50;;;;;;;;;;4907319;29;20037;-73
2023/06/07 00:45:12;;;;;;;10.95;5.93;;;436.10;2355.20;;;;;;4907853;29;20032;-73
2023/06/07 00:47:39;;;;;;;11.93;5.82;;;461.00;2380.80;;;;;;4905500;29;20028;-73
2023/06/07 00:50:06;;;;;;;9.35;5.32;;;461.10;2380.80;;;;;;4912947;29;20039;-73
2023/06/07 00:52:36;;;;;;;10.63;5.60;;;461.10;2380.80;;;;;;4906565;29;20036;-73
2023/06/07 00:55:03;;;;;;;8.52;5.38;;;461.10;2380.80;;;;;;4904956;29;20028;-73
2023/06/07 00:57:29;;;;;;;13.82;6.47;;;461.10;2380.80;;;;;;4908507;29;20107;-74
2023/06/07 00:59:55;;;;;;;8.02;5.32;;;461.10;2380.80;;;;;;4913530;29;20406;-74
2023/06/07 01:02:21;;;;;;;10.10;5.85;;;461.10;2380.80;;;;;;4909415;29;20017;-75
2023/06/07 01:04:49;;;;;;;10.60;5.88;;;461.20;2380.80;;;;;;4905296;29;20521;-76
2023/06/07 01:07:17;;;;;;;8.73;6.18;;;461.20;2380.80;;;;;;4906912;29;20107;-73
2023/06/07 01:09:43;;;;;;;11.80;5.90;;;461.20;2380.80;;;;;;4910975;29;20475;-80
2023/06/07 01:12:15;;;;;;;10.52;6.03;;;461.30;2380.80;;;;;;4902417;29;20435;-78
2023/06/07 01:14:41;;;;;;;10.43;6.53;;;461.30;2380.80;;;;;;4910390;29;20051;-75
2023/06/07 01:17:07;;;;;;;10.82;6.60;;;461.20;2380.80;;;;;;4904961;29;20033;-73
2023/06/07 01:19:36;;;;;;;9.30;5.70;;;461.20;2380.80;;;;;;4911052;29;20075;-84
2023/06/07 01:22:06;;;;;;;8.90;5.30;;;461.20;2380.80;;;;;;4921308;29;20517;-74
2023/06/07 01:24:35;;;;;;;12.43;6.15;;;461.20;2380.80;;;;;;4911227;29;20115;-74
2023/06/07 01:27:02;;;;;;;13.43;6.68;;;461.20;2380.80;;;;;;4904829;29;20107;-75
2023/06/07 01:29:30;;;;;;;11.63;6.32;;;461.30;1996.80;;;;;;4899535;29;20032;-74
2023/06/07 01:32:00;;;;;;;13.77;6.40;;;461.20;2022.40;;;;;;4906806;29;20039;-73
2023/06/07 01:34:26;;;;;;;11.60;6.75;;;461.30;2073.60;;;;;;4910692;29;20025;-74
2023/06/07 01:36:54;;;;;;;16.10;7.47;;;461.30;2380.80;;;;;;4923247;29;20499;-75
2023/06/07 01:39:21;;;;;;;13.18;6.25;;;461.30;2380.80;;;;;;4911061;29;20028;-73
2023/06/07 01:41:49;;;;;;;12.00;7.57;;;461.30;2380.80;;;;;;4905347;29;20036;-75
2023/06/07 01:44:16;;;;;;;12.45;6.85;;;461.30;2380.80;;;;;;4911469;29;20040;-76
2023/06/07 01:46:42;;;;;;;10.30;6.43;;;461.30;2176.00;;;;;;4910652;29;20065;-75
2023/06/07 01:49:08;;;;;;;11.75;6.55;;;461.30;2252.80;;;;;;4902470;29;20108;-73
2023/06/07 01:51:34;;;;;;;17.73;7.03;;;461.30;2227.20;;;;;;4904633;29;20564;-74
2023/06/07 01:54:00;;;;;;;12.77;6.90;;;461.20;2329.60;;;;;;4910708;29;20116;-74
2023/06/07 01:56:42;;;;;;;10.15;6.25;;;461.30;2380.80;;;;;;4906859;29;20063;-76
2023/06/07 01:59:41;;;;;;;11.20;6.13;;;461.30;2355.20;;;;;;4903522;29;20072;-73
2023/06/07 02:02:27;;;;;;;7.68;5.70;;;461.40;2252.80;;;;;;4910852;29;20423;-73
2023/06/07 02:04:56;;;;;;;11.60;6.53;;;;;;;;;;4911474;29;20107;-74
2023/06/07 02:07:27;;;;;;;12.48;7.07;;;461.50;2380.80;;;;;;4911143;29;20063;-72
2023/06/07 02:09:53;;;;;;;16.02;6.75;;;461.50;2380.80;;;;;;4915205;29;20472;-74
2023/06/07 02:12:20;;;;;;;12.10;5.93;;;461.60;2380.80;;;;;;4920720;29;20028;-87
2023/06/07 02:14:52;;;;;;;11.43;6.43;;;461.50;2380.80;;;;;;4920291;29;20495;-85
2023/06/07 02:17:18;;;;;;;17.77;6.30;;;461.60;2380.80;;;;;;4920189;29;20111;-74
2023/06/07 02:19:44;;;;;;;12.55;6.68;;;461.60;2380.80;;;;;;4920639;29;20032;-74
2023/06/07 02:22:09;;;;;;;12.75;6.32;;;461.70;2380.80;;;;;;4920410;29;20562;-84
2023/06/07 02:24:37;;;;;;;10.98;6.45;;;486.40;2380.80;;;;;;4920754;29;20032;-74
2023/06/07 02:27:03;;;;;;;13.02;6.80;;;461.70;2380.80;;;;;;4920407;29;20491;-75
2023/06/07 02:29:29;;;;;;;15.50;7.53;;;461.70;2380.80;;;;;;4920556;29;20044;-80
2023/06/07 02:31:57;;;;;;;12.25;6.88;;;461.70;2380.80;;;;;;4920552;29;20020;-74
2023/06/07 02:34:24;;;;;;;14.50;6.55;;;461.50;2380.80;;;;;;4920650;29;20028;-77
2023/06/07 02:36:50;;;;;;;10.55;6.68;;;461.70;2380.80;;;;;;4920302;29;20387;-74
2023/06/07 02:39:16;;;;;;;10.45;6.95;;;461.70;2380.80;;;;;;4920552;29;20036;-81
2023/06/07 02:41:41;;;;;;;12.85;6.57;;;461.70;2380.80;;;;;;4920457;29;20027;-74
2023/06/07 02:44:07;;;;;;;11.88;7.38;;;461.70;2380.80;;;;;;4919089;29;20483;-73
2023/06/07 02:46:33;;;;;;;12.32;7.30;;;461.60;2380.80;;;;;;4920117;29;20020;-84
2023/06/07 02:48:58;;;;;;;11.85;6.90;;;461.60;2380.80;;;;;;4920310;29;20490;-82
2023/06/07 02:51:25;;;;;;;10.63;6.65;;;461.70;2380.80;;;;;;4920062;29;20024;-75
2023/06/07 02:53:50;;;;;;;15.73;7.90;;;461.70;2380.80;;;;;;4920159;29;20039;-80
2023/06/07 02:56:16;;;;;;;12.05;7.03;;;461.60;2048.00;;;;;;4920003;29;20028;-73
2023/06/07 02:58:42;;;;;;;13.50;7.28;;;461.60;2329.60;;;;;;4920138;29;20032;-76
2023/06/07 03:01:08;;;;;;;10.93;7.13;;;461.60;2380.80;;;;;;4919903;29;20031;-74
2023/06/07 03:03:35;;;;;;;11.25;6.95;;;461.60;2201.60;;;;;;4918962;29;20040;-86
2023/06/07 03:06:04;;;;;;;16.80;7.80;;;461.60;2201.60;;;;;;4919644;29;20095;-85
2023/06/07 03:08:31;;;;;;;10.73;7.53;;;461.70;2380.80;;;;;;4919677;29;20036;-82
2023/06/07 03:10:57;;;;;;;10.05;7.13;;;461.60;2227.20;;;;;;4917777;29;20029;-75
2023/06/07 03:13:24;;;;;;;19.30;7.93;;;461.70;2227.20;;;;;;4919662;29;20028;-85
2023/06/07 03:15:50;;;;;;;12.68;7.05;;;461.70;2278.40;;;;;;4919681;29;20052;-78
2023/06/07 03:18:17;;;;;;;8.20;6.32;;;461.70;2022.40;;;;;;4919718;29;20039;-77
2023/06/07 03:20:43;;;;;;;10.75;6.70;;;461.50;2201.60;;;;;;4919750;29;20026;-86
2023/06/07 03:23:09;;;;;;;13.23;7.72;;;486.40;2380.80;;;;;;4919519;29;20028;-83
2023/06/07 03:25:35;;;;;;;13.32;8.23;;;486.40;2380.80;;;;;;4919643;29;20020;-85
2023/06/07 03:28:02;;;;;;;13.70;7.00;;;486.40;2380.80;;;;;;4919583;29;20040;-85
2023/06/07 03:30:28;;;;;;;12.48;7.03;;;461.70;2150.40;;;;;;4906113;29;20473;-83
2023/06/07 03:32:54;;;;;;;10.20;6.60;;;461.70;2355.20;;;;;;4919352;29;20111;-73
2023/06/07 03:35:20;;;;;;;10.18;6.40;;;461.70;2150.40;;;;;;4919097;29;20099;-73
2023/06/07 03:37:46;;;;;;;14.10;7.25;;;461.70;2380.80;;;;;;4919440;29;20115;-75
2023/06/07 03:40:12;;;;;;;13.07;7.72;;;461.70;2380.80;;;;;;4919338;29;20445;-85
2023/06/07 03:42:38;;;;;;;13.13;7.85;;;461.60;2380.80;;;;;;4919336;29;20107;-74
2023/06/07 03:45:05;;;;;;;16.70;7.45;;;461.70;2380.80;;;;;;4890008;29;20032;-84
2023/06/07 03:47:30;;;;;;;9.65;6.43;;;461.70;2380.80;;;;;;4919324;29;20076;-73
2023/06/07 03:49:56;;;;;;;11.15;7.30;;;486.40;2380.80;;;;;;4919227;29;20036;-76
2023/06/07 03:52:22;;;;;;;12.15;6.85;;;461.70;2380.80;;;;;;4918757;29;20076;-78
2023/06/07 03:54:48;;;;;;;14.18;6.53;;;461.70;2380.80;;;;;;4918983;29;20133;-79
2023/06/07 03:57:13;;;;;;;10.20;7.35;;;461.70;2380.80;;;;;;4919185;29;20431;-86
2023/06/07 03:59:40;;;;;;;15.32;7.22;;;461.70;2380.80;;;;;;4918942;29;20031;-74
2023/06/07 04:02:06;;;;;;;10.95;6.65;;;461.70;2380.80;;;;;;4918833;29;20083;-78
2023/06/07 04:04:32;;;;;;;17.65;6.60;;;461.70;2380.80;;;;;;4918789;29;20024;-73
2023/06/07 04:07:00;;;;;;;13.98;6.93;;;461.70;2380.80;;;;;;4918441;29;20032;-74
2023/06/07 04:09:26;;;;;;;10.77;7.20;;;461.70;2380.80;;;;;;4918841;29;20055;-79
2023/06/07 04:11:52;;;;;;;12.18;6.93;;;461.70;2380.80;;;;;;4918735;29;20028;-75
2023/06/07 04:14:18;;;;;;;9.98;6.93;;;486.40;2380.80;;;;;;4918743;29;20055;-77
2023/06/07 04:16:43;;;;;;;11.25;7.35;;;486.40;2380.80;;;;;;4918760;29;20028;-80
2023/06/07 04:19:09;;;;;;;11.95;6.93;;;486.40;2380.80;;;;;;4917131;29;20035;-80
2023/06/07 04:21:35;;;;;;;19.55;8.30;;;486.40;2380.80;;;;;;4918009;29;20032;-85
2023/06/07 04:24:01;;;;;;;12.85;7.35;;;486.40;2380.80;;;;;;4918536;29;20471;-79
2023/06/07 04:26:29;;;;;;;9.57;6.60;;;486.40;2380.80;;;;;;4917250;29;20115;-73
2023/06/07 04:28:56;;;;;;;12.98;7.03;;;486.40;2380.80;;;;;;4918516;29;20032;-81
2023/06/07 04:31:28;;;;;;;14.52;8.52;;;486.40;2380.80;;;;;;4904717;29;20043;-74
2023/06/07 04:33:57;;;;;;;16.08;8.35;;;461.70;2380.80;;;;;;4918431;29;20111;-86
2023/06/07 04:36:25;;;;;;;11.63;6.93;;;486.40;2380.80;;;;;;4918027;29;20099;-75
2023/06/07 04:39:00;;;;;;;13.90;7.78;;;461.70;2380.80;;;;;;4918428;29;20071;-90
2023/06/07 04:41:30;;;;;;;17.00;8.65;;;461.70;2380.80;;;;;;4918127;29;20028;-76
2023/06/07 04:44:03;;;;;;;12.95;7.75;;;486.40;2380.80;;;;;;4912249;29;20490;-88
2023/06/07 04:46:30;;;;;;;11.13;7.65;;;486.40;2022.40;;;;;;4896188;29;20127;-76
2023/06/07 04:48:57;;;;;;;17.10;8.38;;;486.50;2380.80;;;;;;4910588;29;20029;-90
2023/06/07 04:51:26;;;;;;;12.35;8.35;;;486.50;2380.80;;;;;;4917832;29;20079;-89
2023/06/07 04:53:58;;;;;;;12.70;7.70;;;486.50;2380.80;;;;;;4932322;29;20115;-82
2023/06/07 04:56:28;;;;;;;13.05;8.45;;;486.60;2380.80;;;;;;4915833;29;20020;-74
2023/06/07 04:58:55;;;;;;;12.60;8.32;;;486.70;2380.80;;;;;;4905407;29;20016;-77
2023/06/07 05:01:22;;;;;;;16.02;8.63;;;486.80;2380.80;;;;;;4910846;29;20463;-74
2023/06/07 05:03:49;;;;;;;15.93;7.82;;;486.80;2380.80;;;;;;4904575;29;20051;-76
2023/06/07 05:06:18;;;;;;;16.40;8.93;;;486.90;2380.80;;;;;;4904234;29;20028;-76
2023/06/07 05:08:45;;;;;;;13.95;8.52;;;487.00;2380.80;;;;;;4910221;29;20032;-72
2023/06/07 05:11:11;;;;;;;13.10;8.85;;;487.10;2380.80;;;;;;4906708;29;20044;-74
2023/06/07 05:13:37;;;;;;;14.95;9.43;;;487.10;2380.80;;;;;;4911038;29;20042;-74
2023/06/07 05:16:04;;;;;;;16.65;9.60;;;487.10;2380.80;;;;;;4911245;29;20487;-74
2023/06/07 05:18:30;;;;;;;15.00;9.00;;;487.20;2380.80;;;;;;4908866;29;20049;-73
2023/06/07 05:20:56;;;;;;;15.48;8.45;;;487.20;2380.80;;;;;;4906003;29;20523;-74
2023/06/07 05:23:22;;;;;;;14.43;8.75;;;487.30;2380.80;;;;;;4900949;29;20028;-73
2023/06/07 05:25:47;;;;;;;15.40;8.75;;;512.00;2380.80;;;;;;4905542;29;20032;-72
2023/06/07 05:28:13;;;;;;;11.40;8.15;;;512.10;2380.80;;;;;;4910970;29;20043;-73
2023/06/07 05:30:39;;;;;;;13.52;9.27;;;512.10;2380.80;;;;;;4901230;29;20387;-73
2023/06/07 05:33:06;;;;;;;11.90;8.40;;;512.10;2380.80;;;;;;4884771;29;20029;-74
2023/06/07 05:35:32;;;;;;;12.25;8.50;;;512.00;2380.80;;;;;;4904375;29;20079;-81
2023/06/07 05:37:58;;;;;;;14.77;9.05;;;512.10;2380.80;;;;;;4904472;29;20496;-73
2023/06/07 05:40:23;;;;;;;12.50;8.32;;;512.20;2380.80;;;;;;4904868;29;20013;-74
2023/06/07 05:42:50;;;;;;;13.40;9.35;;;512.10;2380.80;;;;;;4906023;29;20032;-73
2023/06/07 05:45:16;;;;;;;14.40;10.27;;;512.10;2380.80;;;;;;4905448;29;20543;-73
2023/06/07 05:47:43;;;;;;;14.18;10.02;;;512.20;2380.80;;;;;;4897048;29;20032;-77
2023/06/07 05:50:10;;;;;;;14.55;9.63;;;512.20;2380.80;;;;;;4909897;29;20035;-76
2023/06/07 05:52:37;;;;;;;19.17;11.38;;;512.20;2380.80;;;;;;4903242;29;20117;-73
2023/06/07 05:55:03;;;;;;;13.70;9.68;;;512.40;2380.80;;;;;;4903368;29;20036;-74
2023/06/07 05:57:29;;;;;;;16.38;10.88;;;512.60;2380.80;;;;;;4927977;29;20031;-77
2023/06/07 05:59:55;;;;;;;16.40;10.95;;;512.70;2380.80;;;;;;4909970;29;20032;-74
2023/06/07 06:02:23;;;;;;;17.27;12.48;;;512.80;2022.40;;;;;;4904901;29;20405;-73
2023/06/07 06:04:51;;;;;;;21.08;13.77;;;512.80;2380.80;;;;;;4904850;29;20528;-75
2023/06/07 06:07:17;;;;;;;22.40;15.82;;;512.90;2380.80;;;;;;4906157;29;20020;-75
2023/06/07 06:09:42;;;;;;;23.75;14.35;;;512.90;2380.80;;;;;;4907951;29;20070;-74
2023/06/07 06:12:09;;;;;;;24.80;13.90;;;512.90;2380.80;;;;;;4901672;29;20069;-79
2023/06/07 06:14:36;;;;;;;23.63;14.48;;;537.60;2406.40;;;;;;4909156;29;20056;-78
2023/06/07 06:17:01;;;;;;;21.30;15.73;;;537.60;2406.40;;;;;;4910275;29;20032;-78
2023/06/07 06:19:27;;;;;;;20.05;14.27;;;537.70;2406.40;;;;;;4905390;29;20615;-73
2023/06/07 06:21:53;;;;;;;27.25;15.68;;;537.70;2406.40;;;;;;4907215;29;20021;-73
2023/06/07 06:24:18;;;;;;;25.98;15.40;;;537.80;2406.40;;;;;;4908030;29;20031;-73
2023/06/07 06:26:44;;;;;;;19.85;14.60;;;538.00;2406.40;;;;;;4922868;29;20036;-82
2023/06/07 06:29:10;;;;;;;22.38;13.73;;;;;;;;;;4893447;29;20534;-74
2023/06/07 06:31:37;;;;;;;24.75;13.70;;;;;;;;;;4918077;29;20497;-73
2023/06/07 06:34:03;;;;;;;20.83;13.60;;;;;;;;;;4908409;29;20031;-75
2023/06/07 06:36:29;;;;;;;19.27;15.95;;;;;;;;;;4908980;29;20406;-74
2023/06/07 06:38:55;;;;;;;21.95;14.65;;;;;;;;;;4903960;29;20491;-73
2023/06/07 06:41:21;;;;;;;24.13;15.07;;;;;;;;;;4909332;29;20471;-73
2023/06/07 06:43:47;;;;;;;20.33;15.07;;;;;;;;;;4906504;29;20070;-73
2023/06/07 06:46:13;;;;;;;20.55;14.43;;;;;;;;;;4924996;29;20046;-73
2023/06/07 06:48:40;;;;;;;20.05;14.68;;;;;;;;;;4907342;29;20085;-74
2023/06/07 06:51:06;;;;;;;26.98;15.70;;;;;;;;;;4916290;29;20099;-74
2023/06/07 06:53:33;;;;;;;20.58;13.80;;;;;;;;;;4908971;29;20039;-73
2023/06/07 06:55:59;;;;;;;19.40;14.05;;;;;;;;;;4933704;29;20036;-73
2023/06/07 06:58:25;;;;;;;22.35;15.13;;;;;;;;;;4913432;29;20079;-73
2023/06/07 07:00:51;;;;;;;18.88;14.32;;;;;;;;;;4903603;29;20388;-75
2023/06/07 07:03:17;;;;;;;21.75;14.32;;;;;;;;;;4910713;29;20032;-73
2023/06/07 07:05:43;;;;;;;22.20;15.00;;;;;;;;;;4910235;29;20514;-74
2023/06/07 07:08:09;;;;;;;22.10;13.65;;;;;;;;;;4915805;29;20075;-81
2023/06/07 07:10:35;;;;;;;21.20;13.80;;;;;;;;;;4921853;29;20031;-82
2023/06/07 07:13:01;;;;;;;20.23;13.70;;;;;;;;;;4911614;29;20024;-73
2023/06/07 07:15:28;;;;;;;22.60;14.07;;;;;;;;;;4907313;29;20052;-83
2023/06/07 07:17:54;;;;;;;21.42;14.80;;;;;;;;;;4924422;29;20399;-76
2023/06/07 07:20:20;;;;;;;20.83;16.77;;;;;;;;;;4912081;29;20025;-73
2023/06/07 07:22:46;;;;;;;26.63;17.73;;;;;;;;;;4913763;29;20031;-84
2023/06/07 07:25:13;;;;;;;28.92;19.40;;;;;;;;;;4906816;29;20024;-73
2023/06/07 07:27:39;;;;;;;27.20;18.67;;;;;;;;;;4906415;29;20024;-75
2023/06/07 07:30:05;;;;;;;28.35;19.23;;;;;;;;;;4907685;29;20104;-80
2023/06/07 07:32:35;;;;;;;27.25;20.98;;;;;;;;;;4894044;29;20072;-73
2023/06/07 07:35:01;;;;;;;28.45;21.98;;;;;;;;;;4911672;29;20059;-73
2023/06/07 07:37:28;;;;;;;28.98;21.17;;;;;;;;;;4907397;29;20040;-75
2023/06/07 07:39:54;;;;;;;29.90;21.95;;;;;;;;;;4905372;29;20039;-76
2023/06/07 07:42:20;;;;;;;33.42;25.48;;;;;;;;;;4907364;29;20510;-74
2023/06/07 07:44:46;;;;;;;31.63;24.60;;;;;;;;;;4913417;29;20032;-76
2023/06/07 07:47:12;;;;;;;30.42;22.60;;;;;;;;;;4917290;29;20020;-77
2023/06/07 07:49:38;;;;;;;31.05;23.55;;;;;;;;;;4906273;29;20044;-80
2023/06/07 07:52:05;;;;;;;32.72;24.35;;;;;;;;;;4913114;29;20028;-74
2023/06/07 07:54:31;;;;;;;29.35;22.27;;;;;;;;;;4909213;29;20143;-74
2023/06/07 07:56:57;;;;;;;29.75;22.45;;;;;;;;;;4903454;29;20073;-77
2023/06/07 07:59:23;;;;;;;26.85;18.45;;;;;;;;;;4909397;29;20059;-74
2023/06/07 08:01:49;;;;;;;29.15;18.58;;;;;;;;;;4909553;29;20024;-74
2023/06/07 08:04:16;;;;;;;24.73;17.83;;;;;;;;;;4910064;29;20028;-73
2023/06/07 08:06:42;;;;;;;25.95;17.50;;;;;;;;;;4923871;29;20028;-74
2023/06/07 08:09:09;;;;;;;25.90;17.15;;;;;;;;;;4905993;29;20032;-74
2023/06/07 08:11:36;;;;;;;19.77;15.48;;;;;;;;;;4911317;29;20033;-78
2023/06/07 08:14:02;;;;;;;25.55;17.00;;;;;;;;;;4906910;29;20036;-74
2023/06/07 08:16:29;;;;;;;29.25;16.88;;;;;;;;;;4915301;29;20107;-74
2023/06/07 08:18:58;;;;;;;20.63;14.82;;;538.40;2406.40;;;;;;4907607;29;20029;-75
2023/06/07 08:21:27;;;;;;;21.27;15.48;;;538.30;2406.40;;;;;;4927089;29;20028;-76
2023/06/07 08:23:55;;;;;;;28.60;16.13;;;538.30;2406.40;;;;;;4910006;29;20045;-79
2023/06/07 08:26:21;;;;;;;22.15;16.23;;;538.40;2406.40;;;;;;4910444;29;20051;-78
2023/06/07 08:28:46;;;;;;;23.92;18.08;;;538.50;2406.40;;;;;;4909160;29;20037;-84
2023/06/07 08:31:12;;;;;;;19.27;15.57;;;538.50;2406.40;;;;;;4908426;29;20024;-75
2023/06/07 08:33:38;;;;;;;20.40;14.98;;;563.30;2432.00;;;;;;4923940;29;20032;-76
2023/06/07 08:36:04;;;;;;;28.27;16.88;;;563.40;2432.00;;;;;;4909146;29;20102;-74
2023/06/07 08:38:30;;;;;;;20.08;15.20;;;563.60;2432.00;;;;;;4890343;29;20127;-75
2023/06/07 08:40:56;;;;;;;22.45;15.82;;;563.70;2432.00;;;;;;4905891;29;20453;-81
2023/06/07 08:43:23;;;;;;;21.88;16.25;;;563.90;2432.00;;;;;;4904423;29;20035;-77
2023/06/07 08:45:51;;;;;;;25.77;16.88;;;564.00;2432.00;;;;;;4909155;29;20028;-75
2023/06/07 08:48:17;;;;;;;24.38;17.27;;;564.00;2432.00;;;;;;4909453;29;20091;-79
2023/06/07 08:50:46;;;;;;;24.05;17.25;;;564.00;2432.00;;;;;;4910349;29;20024;-81
2023/06/07 08:53:16;;;;;;;30.17;18.88;;;;;;;;;;4908225;29;20040;-79
2023/06/07 08:55:45;;;;;;;23.73;17.30;;;564.10;2432.00;;;;;;4907394;29;20035;-72
2023/06/07 08:58:12;;;;;;;22.52;17.35;;;564.10;2432.00;;;;;;4911597;29;20035;-73
2023/06/07 09:00:38;;;;;;;23.67;16.65;;;;;;;;;;4905657;29;20024;-73
2023/06/07 09:03:05;;;;;;;21.92;17.50;;;589.10;2432.00;;;;;;4908156;29;20487;-80
2023/06/07 09:05:31;;;;;;;39.08;20.60;;;589.10;2432.00;;;;;;4885502;29;20036;-72
2023/06/07 09:07:57;;;;;;;20.02;16.27;;;589.30;2432.00;;;;;;4911300;29;20032;-74
2023/06/07 09:10:23;;;;;;;26.50;17.60;;;589.40;2432.00;;;;;;4905389;29;20024;-78
2023/06/07 09:12:48;;;;;;;21.88;17.80;;;589.30;2432.00;;;;;;4910249;29;20039;-77
2023/06/07 09:15:19;;;;;;;25.27;17.60;;;589.30;2432.00;;;;;;4913614;29;20055;-75
2023/06/07 09:18:05;;;;;;;23.02;17.40;;;589.40;2432.00;;;;;;4908127;29;20032;-80
2023/06/07 09:20:31;;;;;;;23.48;19.55;;;589.60;2432.00;;;;;;4903799;29;20036;-81
2023/06/07 09:23:09;;;;;;;23.05;18.33;;;589.70;2432.00;;;;;;4904683;29;20036;-72
2023/06/07 09:25:37;;;;;;;21.10;16.05;;;614.40;2432.00;;;;;;4921679;29;20032;-78
2023/06/07 09:28:03;;;;;;;21.42;16.67;;;614.50;2432.00;;;;;;4911613;29;20067;-75
2023/06/07 09:30:29;;;;;;;27.40;17.80;;;615.00;2432.00;;;;;;4907246;29;20116;-73
2023/06/07 09:32:55;;;;;;;20.98;16.08;;;614.90;2432.00;;;;;;4906798;29;20115;-77
2023/06/07 09:35:21;;;;;;;23.42;17.30;;;614.90;2432.00;;;;;;4906819;29;20467;-73
2023/06/07 09:37:54;;;;;;;18.80;15.30;;;615.00;2432.00;;;;;;4908581;29;20047;-74
2023/06/07 09:40:21;;;;;;;19.60;16.38;;;614.80;2432.00;;;;;;4912947;29;20072;-80
2023/06/07 09:42:58;;;;;;;23.48;16.48;;;614.70;2432.00;;;;;;4912645;29;20434;-83
2023/06/07 09:45:25;;;;;;;22.33;15.75;;;614.80;2432.00;;;;;;4907952;29;20025;-81
2023/06/07 09:48:04;;;;;;;18.55;14.48;;;614.80;2432.00;;;;;;4926554;29;20040;-74
2023/06/07 09:50:30;;;;;;;24.30;15.07;;;614.80;2432.00;;;;;;4910684;29;20021;-76
2023/06/07 09:52:57;;;;;;;22.90;15.20;;;614.90;2432.00;;;;;;4908164;29;20040;-79
2023/06/07 09:55:28;;;;;;;20.23;15.00;;;615.30;2432.00;;;;;;4906237;29;20103;-82
2023/06/07 09:57:55;;;;;;;17.42;14.23;;;640.20;2432.00;;;;;;4910370;29;20472;-80
2023/06/07 10:00:21;;;;;;;22.42;16.35;;;640.30;2432.00;;;;;;4905138;29;20020;-81
2023/06/07 10:02:49;;;;;;;21.27;17.08;;;640.00;2432.00;;;;;;4907185;29;20028;-75
2023/06/07 10:05:16;;;;;;;23.52;17.60;;;615.10;2432.00;;;;;;4911318;29;20360;-77
2023/06/07 10:07:43;;;;;;;22.92;17.10;;;615.00;2432.00;;;;;;4907036;29;20032;-78
2023/06/07 10:10:11;;;;;;;22.83;17.90;;;615.20;2432.00;;;;;;4898833;29;20032;-72
2023/06/07 10:12:40;;;;;;;23.15;17.50;;;615.10;2432.00;;;;;;4905781;29;20063;-77
2023/06/07 10:15:34;;;;;;;27.83;17.23;;;615.00;2432.00;;;;;;4921980;29;20059;-76
2023/06/07 10:18:12;;;;;;;25.67;16.98;;;615.00;2432.00;;;;;;4906325;29;20055;-74
2023/06/07 10:20:43;;;;;;;19.23;16.55;;;615.20;2432.00;;;;;;4909677;29;20107;-75
2023/06/07 10:23:13;;;;;;;21.50;17.13;;;640.30;2432.00;;;;;;4916766;29;20474;-74
2023/06/07 10:25:41;;;;;;;23.73;17.40;;;;;;;;;;4912743;29;20505;-74
2023/06/07 10:28:14;;;;;;;17.98;15.07;;;;;;;;;;4912068;29;20053;-74
2023/06/07 10:30:43;;;;;;;19.25;14.57;;;;;;;;;;4927472;29;20028;-74
2023/06/07 10:33:10;;;;;;;20.00;13.80;;;666.40;2432.00;;;;;;4910795;29;20119;-75
2023/06/07 10:35:38;;;;;;;19.63;15.40;;;666.20;2432.00;;;;;;4910492;29;20025;-76
2023/06/07 10:38:04;;;;;;;17.50;14.57;;;666.20;2432.00;;;;;;4914060;29;20020;-76
2023/06/07 10:40:31;;;;;;;17.13;13.93;;;666.20;2432.00;;;;;;4913847;29;20024;-76
2023/06/07 10:42:58;;;;;;;20.73;15.38;;;666.30;2432.00;;;;;;4907205;29;20190;-74
2023/06/07 10:45:24;;;;;;;19.58;15.25;;;665.90;2432.00;;;;;;4909685;29;20024;-75
2023/06/07 10:47:50;;;;;;;20.55;14.95;;;665.90;2432.00;;;;;;4910394;29;20028;-73
2023/06/07 10:50:27;;;;;;;20.35;15.35;;;666.20;2432.00;;;;;;4908477;29;20403;-74
2023/06/07 10:52:57;;;;;;;19.92;15.25;;;666.20;2432.00;;;;;;4910570;29;20075;-80
2023/06/07 10:55:26;;;;;;;15.70;13.73;;;666.50;2432.00;;;;;;4913041;29;20402;-85
2023/06/07 10:57:53;;;;;;;16.58;14.15;;;666.50;2432.00;;;;;;4913583;29;20017;-73
2023/06/07 11:00:35;;;;;;;20.20;13.35;;;691.30;2432.00;;;;;;4904462;29;20487;-75
2023/06/07 11:03:09;;;;;;;20.58;14.57;;;691.50;2432.00;;;;;;4893418;29;20029;-77
2023/06/07 11:05:53;;;;;;;20.20;13.70;;;691.50;2432.00;;;;;;4913642;29;20545;-82
2023/06/07 11:08:26;;;;;;;13.82;11.43;;;691.80;2432.00;;;;;;4910173;29;20032;-79
2023/06/07 11:10:58;;;;;;;16.92;13.25;;;691.70;2380.80;;;;;;4904462;29;20032;-76
2023/06/07 11:13:25;;;;;;;20.55;14.65;;;691.80;2329.60;;;;;;4909424;29;20031;-81
2023/06/07 11:15:51;;;;;;;15.90;12.93;;;691.90;2355.20;;;;;;4909046;29;20472;-77
2023/06/07 11:18:16;;;;;;;15.07;12.68;;;692.00;2406.40;;;;;;4907647;29;20070;-74
2023/06/07 11:20:45;;;;;;;19.02;10.73;;;716.80;2304.00;;;;;;4902573;29;20028;-76
2023/06/07 11:23:28;;;;;;;13.45;10.98;;;716.80;2124.80;;;;;;4888985;29;20044;-75
2023/06/07 11:26:01;;;;;;;14.98;11.48;;;716.80;2304.00;;;;;;4910276;29;20383;-78
2023/06/07 11:28:31;;;;;;;21.17;11.95;;;716.80;2432.00;;;;;;4908614;29;20033;-74
2023/06/07 11:30:58;;;;;;;14.85;12.80;;;717.20;2432.00;;;;;;4909155;29;20028;-80
2023/06/07 11:33:25;;;;;;;15.80;11.63;;;716.90;2432.00;;;;;;4909514;29;20388;-80
2023/06/07 11:35:53;;;;;;;14.90;11.25;;;716.90;2432.00;;;;;;4908574;29;20031;-74
2023/06/07 11:38:20;;;;;;;13.25;9.98;;;692.10;2227.20;;;;;;4908878;29;20024;-79
2023/06/07 11:40:46;;;;;;;13.18;9.85;;;716.90;2201.60;;;;;;4911951;29;20028;-81
2023/06/07 11:43:13;;;;;;;15.05;10.98;;;717.20;2048.00;;;;;;4908233;29;20067;-74
2023/06/07 11:45:43;;;;;;;13.00;10.20;;;717.10;2124.80;;;;;;4906972;29;20032;-77
2023/06/07 11:48:09;;;;;;;15.25;11.10;;;717.00;2124.80;;;;;;4910631;29;20039;-73
2023/06/07 11:50:38;;;;;;;14.93;11.88;;;691.70;2201.60;;;;;;4907704;29;20025;-74
2023/06/07 11:53:08;;;;;;;16.95;11.18;;;691.40;2304.00;;;;;;4907792;29;20109;-72
2023/06/07 11:55:34;;;;;;;15.70;11.13;;;691.30;2304.00;;;;;;4908730;29;20059;-77
2023/06/07 11:58:05;;;;;;;16.60;11.70;;;691.50;2355.20;;;;;;4892533;29;20025;-78
2023/06/07 12:00:36;;;;;;;13.18;11.73;;;691.90;2432.00;;;;;;4921619;29;20020;-75
2023/06/07 12:03:03;;;;;;;13.90;9.90;;;691.60;2432.00;;;;;;4909208;29;20024;-74
2023/06/07 12:05:34;;;;;;;11.68;10.02;;;691.20;2432.00;;;;;;4906512;29;20024;-76
2023/06/07 12:08:09;;;;;;;12.63;9.95;;;691.40;2355.20;;;;;;4909684;29;20079;-72
2023/06/07 12:10:39;;;;;;;13.70;10.60;;;691.40;2355.20;;;;;;4906268;29;20028;-80
2023/06/07 12:13:09;;;;;;;10.32;8.73;;;691.30;2329.60;;;;;;4908806;29;20036;-74
2023/06/07 12:15:41;;;;;;;12.70;9.13;;;691.40;2048.00;;;;;;4907612;29;20108;-78
2023/06/07 12:18:11;;;;;;;13.07;10.40;;;691.20;2278.40;;;;;;4908033;29;20036;-76
2023/06/07 12:20:37;;;;;;;13.10;9.50;;;666.50;2432.00;;;;;;4911760;29;20017;-75
2023/06/07 12:23:06;;;;;;;10.02;7.90;;;691.80;2304.00;;;;;;4905619;29;20164;-73
2023/06/07 12:25:34;;;;;;;9.48;7.75;;;691.70;2150.40;;;;;;4906747;29;20047;-73
2023/06/07 12:28:05;;;;;;;17.88;9.75;;;691.60;2099.20;;;;;;4911894;29;20044;-79